createdAt,value
2022-09-02T00:01:46.209Z,15.50
2022-09-02T00:04:21.840Z,15.50
2022-09-02T00:06:50.732Z,15.40
2022-09-02T00:09:21.376Z,15.40
2022-09-02T00:11:50.719Z,15.40
2022-09-02T00:14:23.243Z,15.50
2022-09-02T00:16:52.919Z,15.40
2022-09-02T00:19:22.859Z,15.30
2022-09-02T00:21:50.471Z,15.30
2022-09-02T00:24:17.875Z,15.30
2022-09-02T00:26:45.301Z,15.30
2022-09-02T00:29:14.510Z,15.30
2022-09-02T00:31:43.817Z,15.30
2022-09-02T00:34:11.779Z,15.20
2022-09-02T00:36:39.055Z,15.40
2022-09-02T00:39:08.740Z,15.20
2022-09-02T00:41:38.010Z,15.20
2022-09-02T00:44:09.162Z,15.10
2022-09-02T00:46:36.619Z,15.10
2022-09-02T00:49:34.981Z,15.10
2022-09-02T00:52:17.157Z,15.60
2022-09-02T00:54:50.064Z,15.10
2022-09-02T00:57:22.052Z,15.10
2022-09-02T00:59:49.041Z,15.00
2022-09-02T01:02:17.311Z,15.00
2022-09-02T01:04:46.717Z,15.20
2022-09-02T01:07:14.664Z,15.00
2022-09-02T01:09:41.861Z,15.00
2022-09-02T01:12:09.453Z,15.00
2022-09-02T01:14:36.345Z,15.10
2022-09-02T01:17:03.519Z,15.10
2022-09-02T01:19:38.666Z,15.10
2022-09-02T01:22:28.226Z,15.10
2022-09-02T01:25:00.533Z,15.10
2022-09-02T01:27:27.528Z,15.10
2022-09-02T01:29:57.687Z,15.10
2022-09-02T01:32:25.743Z,15.10
2022-09-02T01:34:53.228Z,15.10
2022-09-02T01:37:20.911Z,15.10
2022-09-02T01:39:48.672Z,15.10
2022-09-02T01:42:16.198Z,15.00
2022-09-02T01:44:45.893Z,15.00
2022-09-02T01:47:19.475Z,14.90
2022-09-02T01:49:46.989Z,14.90
2022-09-02T01:52:14.576Z,15.20
2022-09-02T01:54:41.608Z,14.80
2022-09-02T01:57:09.022Z,14.70
2022-09-02T01:59:35.958Z,14.70
2022-09-02T02:02:03.953Z,14.70
2022-09-02T02:04:31.476Z,14.70
2022-09-02T02:06:59.366Z,14.70
2022-09-02T02:09:26.670Z,14.60
2022-09-02T02:11:54.366Z,14.60
2022-09-02T02:14:21.201Z,14.60
2022-09-02T02:16:48.457Z,14.60
2022-09-02T02:19:15.494Z,14.50
2022-09-02T02:21:43.012Z,14.50
2022-09-02T02:24:10.176Z,14.50
2022-09-02T02:26:37.483Z,14.40
2022-09-02T02:29:04.985Z,14.40
2022-09-02T02:31:32.350Z,14.40
2022-09-02T02:33:59.870Z,14.40
2022-09-02T02:36:26.882Z,14.40
2022-09-02T02:38:53.997Z,14.80
2022-09-02T02:41:21.361Z,14.50
2022-09-02T02:43:48.276Z,14.40
2022-09-02T02:46:15.964Z,14.50
2022-09-02T02:48:43.144Z,14.50
2022-09-02T02:51:10.361Z,14.50
2022-09-02T02:53:37.517Z,14.60
2022-09-02T02:56:05.896Z,14.60
2022-09-02T02:58:33.695Z,14.60
2022-09-02T03:01:01.421Z,14.60
2022-09-02T03:03:28.473Z,14.60
2022-09-02T03:05:55.444Z,14.60
2022-09-02T03:08:23.012Z,14.50
2022-09-02T03:10:54.215Z,14.40
2022-09-02T03:13:22.939Z,14.40
2022-09-02T03:15:50.444Z,14.40
2022-09-02T03:18:17.590Z,14.70
2022-09-02T03:20:45.279Z,14.30
2022-09-02T03:23:13.286Z,14.20
2022-09-02T03:25:43.244Z,14.20
2022-09-02T03:28:11.007Z,14.10
2022-09-02T03:30:42.640Z,14.10
2022-09-02T03:33:09.668Z,14.10
2022-09-02T03:35:41.853Z,14.10
2022-09-02T03:38:10.134Z,14.00
2022-09-02T03:40:37.412Z,14.40
2022-09-02T03:43:07.357Z,14.00
2022-09-02T03:45:34.309Z,13.90
2022-09-02T03:48:01.809Z,13.90
2022-09-02T03:50:36.485Z,13.90
2022-09-02T03:53:04.602Z,13.80
2022-09-02T03:55:32.035Z,13.80
2022-09-02T03:57:59.822Z,13.80
2022-09-02T04:00:31.853Z,13.80
2022-09-02T04:03:01.350Z,13.70
2022-09-02T04:05:28.909Z,13.70
2022-09-02T04:07:56.894Z,13.70
2022-09-02T04:10:23.981Z,13.70
2022-09-02T04:12:51.738Z,13.60
2022-09-02T04:15:20.197Z,13.60
2022-09-02T04:17:47.244Z,13.60
2022-09-02T04:20:16.257Z,13.60
2022-09-02T04:22:44.819Z,13.60
2022-09-02T04:25:12.004Z,13.60
2022-09-02T04:27:39.248Z,13.60
2022-09-02T04:30:08.145Z,13.60
2022-09-02T04:32:40.415Z,13.50
2022-09-02T04:35:08.796Z,13.60
2022-09-02T04:37:35.732Z,13.50
2022-09-02T04:40:03.039Z,13.60
2022-09-02T04:42:30.134Z,13.50
2022-09-02T04:44:57.928Z,13.80
2022-09-02T04:47:26.583Z,13.60
2022-09-02T04:49:53.938Z,13.60
2022-09-02T04:52:21.168Z,13.60
2022-09-02T04:54:48.336Z,13.70
2022-09-02T04:57:16.002Z,13.80
2022-09-02T04:59:43.368Z,14.20
2022-09-02T05:02:12.080Z,14.80
2022-09-02T05:04:39.291Z,15.50
2022-09-02T05:07:06.214Z,16.10
2022-09-02T05:09:33.727Z,16.50
2022-09-02T05:12:04.225Z,16.70
2022-09-02T05:14:31.473Z,16.60
2022-09-02T05:17:05.177Z,16.40
2022-09-02T05:19:34.795Z,16.10
2022-09-02T05:22:02.355Z,16.00
2022-09-02T05:24:29.814Z,15.50
2022-09-02T05:26:56.896Z,15.50
2022-09-02T05:29:24.237Z,15.50
2022-09-02T05:31:51.389Z,15.90
2022-09-02T05:34:18.620Z,16.80
2022-09-02T05:36:46.283Z,17.80
2022-09-02T05:39:13.733Z,18.70
2022-09-02T05:41:43.554Z,19.80
2022-09-02T05:44:11.099Z,19.70
2022-09-02T05:46:38.273Z,19.80
2022-09-02T05:49:06.312Z,20.70
2022-09-02T05:51:57.194Z,21.60
2022-09-02T05:54:49.454Z,22.60
2022-09-02T05:57:19.441Z,23.50
2022-09-02T05:59:50.331Z,24.20
2022-09-02T06:02:18.486Z,24.80
2022-09-02T06:04:49.257Z,25.40
2022-09-02T06:07:17.520Z,26.00
2022-09-02T06:09:45.191Z,26.30
2022-09-02T06:12:14.689Z,26.60
2022-09-02T06:14:42.890Z,27.10
2022-09-02T06:17:10.523Z,27.60
2022-09-02T06:19:37.730Z,28.20
2022-09-02T06:22:05.376Z,28.90
2022-09-02T06:24:33.079Z,29.30
2022-09-02T06:27:01.904Z,29.80
2022-09-02T06:29:29.462Z,30.10
2022-09-02T06:31:56.696Z,30.60
2022-09-02T06:34:27.258Z,31.30
2022-09-02T06:36:55.110Z,32.00
2022-09-02T06:39:26.081Z,32.40
2022-09-02T06:41:56.397Z,32.90
2022-09-02T06:44:23.955Z,33.60
2022-09-02T06:46:59.060Z,34.20
2022-09-02T06:49:28.028Z,34.40
2022-09-02T06:51:56.906Z,34.70
2022-09-02T06:54:26.438Z,34.90
2022-09-02T06:56:54.292Z,34.90
2022-09-02T06:59:22.075Z,35.00
2022-09-02T07:01:49.977Z,35.30
2022-09-02T07:04:36.151Z,35.40
2022-09-02T07:07:05.288Z,35.60
2022-09-02T07:09:32.413Z,35.70
2022-09-02T07:12:04.998Z,36.00
2022-09-02T07:14:37.769Z,36.20
2022-09-02T07:17:07.038Z,36.20
2022-09-02T07:19:35.719Z,36.50
2022-09-02T07:22:06.162Z,35.60
2022-09-02T07:24:33.603Z,34.10
2022-09-02T07:27:00.863Z,32.20
2022-09-02T07:29:28.080Z,31.00
2022-09-02T07:31:55.373Z,29.60
2022-09-02T07:34:22.630Z,28.40
2022-09-02T07:36:50.372Z,27.40
2022-09-02T07:39:18.728Z,26.70
2022-09-02T07:41:49.102Z,26.00
2022-09-02T07:44:18.051Z,25.50
2022-09-02T07:46:46.900Z,25.00
2022-09-02T07:49:15.668Z,24.70
2022-09-02T07:51:46.601Z,23.90
2022-09-02T07:54:13.963Z,24.00
2022-09-02T07:56:41.214Z,23.80
2022-09-02T07:59:09.568Z,23.60
2022-09-02T08:01:37.695Z,23.40
2022-09-02T08:04:06.563Z,23.20
2022-09-02T08:06:35.077Z,23.10
2022-09-02T08:09:11.408Z,22.90
2022-09-02T08:11:45.275Z,22.80
2022-09-02T08:14:15.380Z,22.70
2022-09-02T08:16:44.957Z,22.60
2022-09-02T08:19:12.883Z,22.60
2022-09-02T08:21:40.144Z,22.60
2022-09-02T08:24:07.558Z,22.60
2022-09-02T08:26:37.441Z,22.60
2022-09-02T08:29:08.767Z,22.70
2022-09-02T08:31:38.610Z,22.70
2022-09-02T08:34:05.927Z,22.70
2022-09-02T08:36:33.121Z,22.70
2022-09-02T08:39:04.162Z,22.70
2022-09-02T08:42:04.320Z,22.30
2022-09-02T08:44:36.480Z,22.60
2022-09-02T08:47:09.890Z,22.60
2022-09-02T08:49:43.481Z,22.70
2022-09-02T08:52:20.188Z,22.70
2022-09-02T08:54:56.814Z,22.50
2022-09-02T08:57:27.217Z,22.90
2022-09-02T08:59:58.354Z,23.00
2022-09-02T09:02:58.150Z,23.10
2022-09-02T09:05:31.859Z,23.10
2022-09-02T09:08:25.479Z,23.10
2022-09-02T09:10:57.067Z,23.10
2022-09-02T09:13:24.138Z,23.20
2022-09-02T09:16:28.264Z,23.20
2022-09-02T09:19:15.863Z,23.40
2022-09-02T09:21:44.392Z,23.30
2022-09-02T09:24:30.407Z,23.40
2022-09-02T09:26:58.741Z,23.40
2022-09-02T09:29:25.712Z,23.30
2022-09-02T09:31:58.560Z,23.40
2022-09-02T09:34:45.818Z,23.40
2022-09-02T09:37:32.729Z,23.50
2022-09-02T09:40:23.708Z,23.50
2022-09-02T09:43:06.039Z,23.60
2022-09-02T09:45:44.314Z,23.70
2022-09-02T09:48:22.448Z,23.70
2022-09-02T09:51:07.105Z,23.70
2022-09-02T09:53:35.913Z,23.70
2022-09-02T09:56:05.851Z,23.80
2022-09-02T09:58:40.337Z,24.00
2022-09-02T10:01:18.698Z,24.00
2022-09-02T10:04:00.884Z,24.00
2022-09-02T10:06:30.928Z,24.00
2022-09-02T10:09:02.418Z,24.10
2022-09-02T10:11:35.515Z,24.10
2022-09-02T10:14:07.312Z,24.00
2022-09-02T10:16:52.573Z,24.10
2022-09-02T10:19:22.427Z,24.20
2022-09-02T10:22:37.788Z,24.20
2022-09-02T10:25:45.104Z,24.30
2022-09-02T10:28:18.006Z,24.30
2022-09-02T10:31:00.055Z,24.30
2022-09-02T10:33:41.926Z,24.30
2022-09-02T10:36:30.390Z,24.30
2022-09-02T10:39:26.629Z,24.30
2022-09-02T10:41:58.631Z,24.40
2022-09-02T10:44:34.009Z,24.60
2022-09-02T10:47:02.401Z,24.70
2022-09-02T10:49:50.867Z,24.80
2022-09-02T10:52:42.553Z,24.90
2022-09-02T10:55:41.736Z,24.90
2022-09-02T10:58:39.679Z,24.90
2022-09-02T11:01:10.722Z,24.90
2022-09-02T11:03:49.941Z,24.90
2022-09-02T11:06:26.242Z,24.90
2022-09-02T11:09:09.592Z,25.00
2022-09-02T11:11:58.328Z,25.10
2022-09-02T11:14:36.576Z,24.90
2022-09-02T11:17:13.148Z,24.90
2022-09-02T11:19:49.110Z,24.80
2022-09-02T11:22:35.214Z,24.80
2022-09-02T11:25:48.882Z,24.70
2022-09-02T11:28:38.790Z,24.70
2022-09-02T11:31:43.062Z,24.60
2022-09-02T11:34:37.382Z,24.60
2022-09-02T11:37:31.789Z,24.60
2022-09-02T11:40:33.642Z,24.70
2022-09-02T11:43:29.243Z,24.60
2022-09-02T11:46:16.561Z,24.60
2022-09-02T11:49:05.914Z,24.60
2022-09-02T11:51:53.204Z,24.50
2022-09-02T11:54:21.991Z,24.50
2022-09-02T11:57:02.284Z,24.60
2022-09-02T11:59:54.888Z,24.60
2022-09-02T12:02:50.618Z,24.70
2022-09-02T12:05:32.833Z,24.70
2022-09-02T12:08:35.547Z,24.80
2022-09-02T12:11:04.883Z,24.80
2022-09-02T12:13:43.719Z,24.90
2022-09-02T12:16:16.624Z,25.00
2022-09-02T12:18:48.204Z,25.10
2022-09-02T12:21:21.828Z,25.20
2022-09-02T12:23:56.135Z,25.30
2022-09-02T12:26:30.678Z,25.40
2022-09-02T12:29:34.109Z,25.60
2022-09-02T12:32:01.046Z,25.70
2022-09-02T12:34:30.598Z,25.90
2022-09-02T12:37:04.048Z,26.00
2022-09-02T12:39:35.489Z,26.10
2022-09-02T12:42:11.323Z,26.40
2022-09-02T12:45:16.667Z,26.40
2022-09-02T12:47:49.389Z,26.60
2022-09-02T12:50:22.803Z,26.80
2022-09-02T12:53:26.457Z,27.00
2022-09-02T12:55:58.600Z,27.00
2022-09-02T12:58:26.739Z,26.90
2022-09-02T13:01:14.781Z,26.60
2022-09-02T13:03:44.453Z,26.50
2022-09-02T13:06:20.265Z,26.40
2022-09-02T13:09:04.652Z,26.40
2022-09-02T13:11:40.541Z,26.30
2022-09-02T13:14:42.452Z,26.20
2022-09-02T13:17:41.483Z,26.10
2022-09-02T13:20:43.513Z,26.20
2022-09-02T13:24:42.612Z,26.30
2022-09-02T13:26:49.415Z,26.40
2022-09-02T13:29:24.363Z,26.50
2022-09-02T13:32:10.552Z,26.70
2022-09-02T13:34:46.148Z,26.70
2022-09-02T13:37:37.123Z,26.70
2022-09-02T13:40:26.405Z,26.60
2022-09-02T13:43:18.714Z,26.30
2022-09-02T13:45:49.740Z,26.10
2022-09-02T13:48:19.904Z,26.00
2022-09-02T13:50:49.231Z,25.80
2022-09-02T13:53:49.258Z,25.70
2022-09-02T13:56:30.778Z,25.60
2022-09-02T13:58:57.909Z,25.50
2022-09-02T14:01:29.508Z,25.40
2022-09-02T14:03:58.994Z,25.40
2022-09-02T14:06:30.771Z,25.40
2022-09-02T14:09:01.335Z,25.60
2022-09-02T14:11:29.762Z,25.80
2022-09-02T14:13:57.736Z,26.00
2022-09-02T14:16:33.367Z,26.00
2022-09-02T14:19:09.037Z,26.10
2022-09-02T14:21:37.545Z,25.90
2022-09-02T14:24:05.029Z,25.90
2022-09-02T14:26:39.737Z,25.80
2022-09-02T14:29:08.264Z,25.60
2022-09-02T14:31:37.757Z,25.60
2022-09-02T14:34:06.320Z,25.60
2022-09-02T14:36:36.771Z,25.70
2022-09-02T14:39:30.084Z,25.70
2022-09-02T14:41:57.850Z,25.70
2022-09-02T14:44:34.599Z,25.70
2022-09-02T14:47:07.288Z,25.70
2022-09-02T14:49:39.351Z,25.80
2022-09-02T14:52:23.367Z,25.80
2022-09-02T14:54:51.955Z,25.80
2022-09-02T14:57:32.718Z,25.80
2022-09-02T15:00:17.957Z,25.70
2022-09-02T15:02:48.790Z,25.60
2022-09-02T15:05:16.601Z,25.50
2022-09-02T15:07:43.525Z,25.40
2022-09-02T15:10:10.646Z,25.20
2022-09-02T15:12:49.009Z,25.20
2022-09-02T15:15:16.208Z,25.20
2022-09-02T15:17:43.087Z,25.30
2022-09-02T15:20:11.124Z,25.20
2022-09-02T15:22:38.596Z,25.30
2022-09-02T15:25:09.208Z,25.30
2022-09-02T15:27:36.988Z,25.30
2022-09-02T15:30:05.433Z,25.20
2022-09-02T15:32:32.685Z,25.10
2022-09-02T15:34:59.627Z,25.00
2022-09-02T15:37:27.503Z,24.90
2022-09-02T15:39:54.462Z,24.80
2022-09-02T15:42:21.456Z,24.80
2022-09-02T15:44:48.308Z,24.80
2022-09-02T15:47:15.302Z,24.80
2022-09-02T15:49:42.156Z,24.90
2022-09-02T15:52:09.144Z,24.80
2022-09-02T15:54:35.992Z,24.70
2022-09-02T15:57:03.644Z,24.70
2022-09-02T15:59:30.512Z,24.70
2022-09-02T16:02:00.828Z,24.70
2022-09-02T16:04:27.815Z,24.70
2022-09-02T16:06:54.782Z,24.60
2022-09-02T16:09:22.315Z,24.50
2022-09-02T16:11:52.306Z,24.40
2022-09-02T16:14:20.858Z,24.30
2022-09-02T16:16:49.833Z,24.30
2022-09-02T16:19:20.260Z,24.30
2022-09-02T16:21:48.036Z,24.20
2022-09-02T16:24:15.031Z,24.10
2022-09-02T16:26:42.169Z,24.10
2022-09-02T16:29:13.737Z,23.90
2022-09-02T16:31:42.614Z,23.90
2022-09-02T16:34:17.856Z,23.80
2022-09-02T16:36:46.934Z,23.70
2022-09-02T16:39:15.319Z,23.60
2022-09-02T16:41:45.323Z,23.60
2022-09-02T16:44:18.415Z,23.60
2022-09-02T16:46:46.533Z,23.50
2022-09-02T16:49:18.402Z,23.50
2022-09-02T16:51:49.987Z,23.40
2022-09-02T16:54:21.325Z,23.30
2022-09-02T16:56:57.957Z,23.30
2022-09-02T16:59:24.863Z,23.20
2022-09-02T17:01:51.839Z,23.20
2022-09-02T17:04:18.781Z,23.20
2022-09-02T17:06:45.621Z,23.10
2022-09-02T17:09:12.533Z,23.10
2022-09-02T17:11:41.247Z,23.10
2022-09-02T17:14:09.513Z,23.00
2022-09-02T17:16:50.355Z,22.90
2022-09-02T17:19:22.508Z,22.90
2022-09-02T17:21:54.225Z,22.80
2022-09-02T17:24:23.986Z,22.80
2022-09-02T17:26:54.264Z,22.70
2022-09-02T17:29:48.159Z,22.60
2022-09-02T17:32:10.594Z,22.60
2022-09-02T17:34:37.594Z,22.50
2022-09-02T17:37:05.338Z,22.40
2022-09-02T17:39:34.262Z,22.40
2022-09-02T17:42:02.959Z,22.30
2022-09-02T17:44:35.273Z,22.20
2022-09-02T17:47:07.228Z,22.20
2022-09-02T17:49:37.880Z,22.10
2022-09-02T17:52:06.866Z,22.00
2022-09-02T17:54:35.236Z,22.00
2022-09-02T17:57:17.116Z,21.90
2022-09-02T18:00:02.646Z,21.80
2022-09-02T18:02:55.588Z,21.70
2022-09-02T18:05:56.578Z,21.70
2022-09-02T18:08:26.156Z,21.50
2022-09-02T18:10:59.305Z,21.40
2022-09-02T18:13:41.253Z,21.40
2022-09-02T18:16:32.022Z,21.30
2022-09-02T18:19:04.803Z,21.20
2022-09-02T18:22:00.309Z,21.10
2022-09-02T18:24:56.525Z,21.00
2022-09-02T18:27:43.560Z,21.00
2022-09-02T18:30:43.285Z,20.90
2022-09-02T18:33:34.924Z,20.80
2022-09-02T18:36:13.793Z,20.70
2022-09-02T18:38:56.973Z,20.60
2022-09-02T18:42:01.148Z,20.60
2022-09-02T18:44:36.036Z,20.50
2022-09-02T18:47:09.985Z,20.50
2022-09-02T18:49:39.575Z,20.40
2022-09-02T18:52:10.397Z,20.40
2022-09-02T18:54:57.196Z,20.30
2022-09-02T18:57:27.019Z,20.30
2022-09-02T19:00:03.168Z,20.20
2022-09-02T19:02:38.872Z,20.20
2022-09-02T19:05:10.077Z,20.20
2022-09-02T19:07:56.483Z,20.20
2022-09-02T19:10:23.922Z,20.20
2022-09-02T19:12:50.886Z,20.20
2022-09-02T19:15:18.685Z,20.20
2022-09-02T19:17:45.941Z,20.10
2022-09-02T19:20:12.865Z,20.10
2022-09-02T19:22:44.086Z,20.10
2022-09-02T19:25:15.462Z,20.10
2022-09-02T19:27:44.403Z,20.00
2022-09-02T19:30:22.055Z,20.00
2022-09-02T19:32:52.691Z,20.00
2022-09-02T19:35:23.774Z,19.90
2022-09-02T19:37:53.475Z,19.90
2022-09-02T19:40:32.852Z,19.90
2022-09-02T19:43:03.290Z,19.80
2022-09-02T19:45:34.812Z,19.80
2022-09-02T19:48:09.672Z,19.70
2022-09-02T19:50:45.203Z,19.70
2022-09-02T19:53:22.354Z,19.70
2022-09-02T19:55:51.085Z,19.60
2022-09-02T19:58:18.356Z,19.60
2022-09-02T20:00:45.369Z,19.60
2022-09-02T20:03:13.030Z,19.50
2022-09-02T20:05:40.827Z,19.50
2022-09-02T20:08:10.463Z,19.40
2022-09-02T20:10:39.128Z,19.30
2022-09-02T20:13:07.124Z,19.30
2022-09-02T20:15:37.718Z,19.30
2022-09-02T20:18:11.062Z,19.20
2022-09-02T20:20:41.350Z,19.20
2022-09-02T20:23:08.330Z,19.20
2022-09-02T20:25:46.767Z,19.30
2022-09-02T20:28:29.564Z,19.20
2022-09-02T20:31:17.864Z,19.20
2022-09-02T20:34:13.971Z,19.20
2022-09-02T20:36:47.406Z,19.20
2022-09-02T20:39:34.048Z,19.20
2022-09-02T20:42:25.835Z,19.30
2022-09-02T20:44:59.366Z,19.30
2022-09-02T20:47:35.141Z,19.30
2022-09-02T20:50:21.990Z,19.30
2022-09-02T20:53:18.167Z,19.30
2022-09-02T20:55:55.861Z,19.40
2022-09-02T20:58:32.554Z,19.40
2022-09-02T21:01:27.477Z,19.50
2022-09-02T21:04:25.445Z,19.50
2022-09-02T21:07:09.159Z,19.50
2022-09-02T21:10:06.668Z,19.40
2022-09-02T21:12:41.203Z,19.40
2022-09-02T21:15:21.061Z,19.40
2022-09-02T21:17:54.534Z,19.40
2022-09-02T21:20:32.070Z,19.30
2022-09-02T21:23:01.916Z,19.30
2022-09-02T21:25:36.639Z,19.30
2022-09-02T21:28:20.589Z,19.20
2022-09-02T21:31:24.913Z,19.20
2022-09-02T21:33:54.687Z,19.10
2022-09-02T21:36:28.734Z,19.10
2022-09-02T21:38:58.293Z,19.00
2022-09-02T21:41:37.047Z,19.00
2022-09-02T21:44:22.619Z,18.90
2022-09-02T21:47:11.224Z,18.90
2022-09-02T21:50:08.557Z,18.80
2022-09-02T21:53:04.409Z,18.80
2022-09-02T21:55:59.078Z,18.80
2022-09-02T21:58:43.759Z,18.70
2022-09-02T22:01:25.694Z,18.70
2022-09-02T22:04:04.058Z,18.70
2022-09-02T22:06:47.860Z,18.60
2022-09-02T22:09:17.733Z,18.60
2022-09-02T22:12:04.896Z,18.60
2022-09-02T22:14:35.248Z,18.60
2022-09-02T22:17:14.433Z,18.50
2022-09-02T22:19:43.029Z,18.50
2022-09-02T22:22:15.202Z,18.40
2022-09-02T22:24:42.123Z,18.40
2022-09-02T22:27:17.122Z,18.40
2022-09-02T22:29:53.686Z,18.30
2022-09-02T22:32:24.110Z,18.30
2022-09-02T22:35:31.433Z,18.20
2022-09-02T22:38:26.122Z,18.20
2022-09-02T22:41:05.619Z,18.10
2022-09-02T22:44:05.232Z,18.00
2022-09-02T22:47:00.386Z,18.00
2022-09-02T22:49:49.646Z,17.90
2022-09-02T22:52:49.258Z,17.90
2022-09-02T22:55:25.008Z,17.80
2022-09-02T22:58:33.121Z,17.70
2022-09-02T23:01:26.421Z,17.70
2022-09-02T23:04:15.389Z,17.60
2022-09-02T23:06:44.550Z,17.60
2022-09-02T23:09:13.816Z,17.60
2022-09-02T23:11:55.029Z,17.50
2022-09-02T23:14:41.831Z,17.50
2022-09-02T23:17:34.746Z,17.50
2022-09-02T23:20:21.690Z,17.40
2022-09-02T23:23:14.148Z,17.40
2022-09-02T23:26:09.891Z,17.40
2022-09-02T23:28:39.674Z,17.40
2022-09-02T23:31:18.358Z,17.30
2022-09-02T23:33:55.935Z,17.30
2022-09-02T23:36:47.310Z,17.30
2022-09-02T23:39:18.846Z,17.20
2022-09-02T23:41:47.242Z,17.20
2022-09-02T23:44:14.262Z,17.20
2022-09-02T23:47:11.185Z,17.20
2022-09-02T23:50:07.435Z,17.20
2022-09-02T23:52:56.281Z,17.20
2022-09-02T23:55:37.538Z,17.20
2022-09-02T23:58:27.658Z,17.20
